Time;durP1;ratioP1;P1;durP2;ratioP2;P2;SDS_P1;SDS_P2;PMS_P1;PMS_P2;Temp;Humidity;BMP_temperature;BMP_pressure;BME280_temperature;BME280_humidity;BME280_pressure;Samples;Min_cycle;Max_cycle;Signal;HPM_P1;HPM_P2
2023/05/01 00:00:31;;;;;;;0.63;0.50;;;;;;;15.03;49.52;101138.16;5174226;28;20045;-83
2023/05/01 00:03:22;;;;;;;0.50;0.50;;;;;;;15.03;49.92;101140.81;5146931;28;20050;-83
2023/05/01 00:06:13;;;;;;;0.95;0.95;;;;;;;15.02;50.38;101136.44;5163991;28;20047;-83
2023/05/01 00:09:04;;;;;;;1.15;1.05;;;;;;;14.94;49.49;101141.16;5157351;28;20042;-82
2023/05/01 00:11:55;;;;;;;0.82;0.82;;;;;;;14.72;51.10;101136.69;5154389;28;20046;-83
2023/05/01 00:14:45;;;;;;;0.70;0.70;;;;;;;14.73;50.92;101135.78;5156327;28;20026;-83
2023/05/01 00:17:36;;;;;;;1.52;0.95;;;;;;;14.82;50.48;101131.06;5144648;28;20105;-84
2023/05/01 00:20:28;;;;;;;0.30;0.30;;;;;;;14.79;51.07;101127.63;5143344;28;20511;-82
2023/05/01 00:23:19;;;;;;;0.25;0.25;;;;;;;14.78;50.58;101125.06;5153371;28;20552;-83
2023/05/01 00:26:10;;;;;;;0.85;0.85;;;;;;;14.00;53.20;101126.97;5156401;28;20057;-82
2023/05/01 00:29:00;;;;;;;0.40;0.40;;;;;;;13.89;53.30;101119.41;5149443;28;20346;-83
2023/05/01 00:31:52;;;;;;;0.43;0.43;;;;;;;14.20;51.80;101117.47;5160167;28;20105;-82
2023/05/01 00:34:44;;;;;;;0.30;0.30;;;;;;;14.37;51.75;101108.94;5149570;28;20045;-83
2023/05/01 00:37:36;;;;;;;1.08;0.88;;;;;;;14.43;51.18;101106.91;5140971;28;20034;-83
2023/05/01 00:40:26;;;;;;;0.30;0.30;;;;;;;14.45;51.68;101104.25;5146351;28;20026;-82
2023/05/01 00:43:17;;;;;;;0.40;0.40;;;;;;;14.53;50.91;101103.94;5157340;28;20054;-82
2023/05/01 00:46:10;;;;;;;0.55;0.55;;;;;;;14.54;51.09;101103.03;5156847;28;20106;-84
2023/05/01 00:49:00;;;;;;;0.68;0.68;;;;;;;14.56;51.27;101095.91;5145771;28;20043;-82
2023/05/01 00:51:54;;;;;;;0.73;0.73;;;;;;;14.52;50.97;101089.91;5143168;28;20041;-83
2023/05/01 00:54:50;;;;;;;0.25;0.25;;;;;;;14.53;50.94;101094.25;5147629;28;20042;-83
2023/05/01 00:57:41;;;;;;;0.30;0.30;;;;;;;14.50;51.17;101082.94;5143553;28;20042;-84
2023/05/01 01:00:32;;;;;;;0.55;0.55;;;;;;;14.50;50.99;101083.81;5154999;28;20104;-83
2023/05/01 01:03:23;;;;;;;6.93;0.95;;;;;;;14.29;52.13;101075.78;5145624;28;20042;-84
2023/05/01 01:06:20;;;;;;;0.40;0.40;;;;;;;14.34;51.65;101072.94;5160432;28;20042;-83
2023/05/01 01:09:29;;;;;;;0.30;0.30;;;;;;;14.35;51.31;101064.09;5153781;28;20125;-82
2023/05/01 01:12:50;;;;;;;0.93;0.85;;;;;;;14.33;51.21;101065.97;5147118;28;20065;-84
2023/05/01 01:16:02;;;;;;;0.35;0.35;;;;;;;14.33;51.07;101061.53;5140619;28;20038;-83
2023/05/01 01:19:14;;;;;;;0.30;0.30;;;;;;;14.03;52.18;101052.97;5157865;28;20050;-82
2023/05/01 01:22:11;;;;;;;0.30;0.30;;;;;;;14.21;51.30;101051.44;5151815;28;20050;-82
2023/05/01 01:25:32;;;;;;;0.30;0.30;;;;;;;14.08;51.66;101045.75;5157061;28;20027;-81
2023/05/01 01:29:01;;;;;;;0.32;0.32;;;;;;;14.12;51.52;101051.78;5134190;28;20390;-82
2023/05/01 01:32:10;;;;;;;0.43;0.43;;;;;;;14.19;51.38;101037.44;5155087;28;20046;-83
2023/05/01 01:35:09;;;;;;;0.35;0.35;;;;;;;13.96;52.45;101046.19;5157099;28;20026;-82
2023/05/01 01:38:05;;;;;;;0.68;0.68;;;;;;;14.01;52.06;101034.56;5155354;28;20049;-82
2023/05/01 01:41:06;;;;;;;0.40;0.40;;;;;;;13.88;52.42;101040.34;5153055;28;20068;-82
2023/05/01 01:44:08;;;;;;;0.43;0.43;;;;;;;13.64;53.45;101029.75;5168587;28;20054;-81
2023/05/01 01:47:03;;;;;;;0.75;0.75;;;;;;;14.01;52.37;101029.28;5153133;28;20416;-82
2023/05/01 01:49:55;;;;;;;0.20;0.20;;;;;;;13.95;52.64;101024.25;5157794;28;20409;-82
2023/05/01 01:52:48;;;;;;;0.47;0.47;;;;;;;14.10;51.67;101021.94;5150383;28;20089;-82
2023/05/01 01:55:42;;;;;;;0.35;0.35;;;;;;;14.06;51.76;101023.84;5156688;28;20046;-81
2023/05/01 01:58:37;;;;;;;0.50;0.50;;;;;;;13.63;53.32;101012.19;5146674;28;20043;-83
2023/05/01 02:01:29;;;;;;;0.30;0.30;;;;;;;13.59;53.20;101015.88;5156479;28;20053;-84
2023/05/01 02:04:21;;;;;;;1.05;1.00;;;;;;;13.81;52.09;101008.03;5153601;28;20246;-82
2023/05/01 02:07:14;;;;;;;0.70;0.70;;;;;;;13.29;53.68;101011.56;5173416;28;20272;-81
2023/05/01 02:10:07;;;;;;;0.40;0.40;;;;;;;13.44;52.81;101007.56;5156810;28;20045;-82
2023/05/01 02:12:59;;;;;;;1.00;1.00;;;;;;;13.43;53.37;101002.34;5141253;28;20042;-81
2023/05/01 02:15:51;;;;;;;0.40;0.40;;;;;;;13.51;52.66;101003.78;5153760;28;20042;-82
2023/05/01 02:18:45;;;;;;;0.20;0.20;;;;;;;13.37;53.00;100999.00;5149076;28;20058;-83
2023/05/01 02:21:37;;;;;;;0.40;0.40;;;;;;;13.47;52.99;100996.06;5153032;28;20473;-83
2023/05/01 02:24:30;;;;;;;0.20;0.20;;;;;;;13.54;52.65;100989.66;5140879;28;20047;-82
2023/05/01 02:27:59;;;;;;;0.50;0.50;;;;;;;13.73;51.95;100987.22;5157631;28;20105;-83
2023/05/01 02:30:51;;;;;;;0.30;0.30;;;;;;;13.78;51.92;100984.44;5131492;28;20064;-83
2023/05/01 02:33:42;;;;;;;0.20;0.20;;;;;;;13.72;52.55;100974.97;5139326;28;20154;-83
2023/05/01 02:36:33;;;;;;;0.30;0.30;;;;;;;13.78;52.18;100981.78;5153550;28;20326;-84
2023/05/01 02:39:23;;;;;;;0.40;0.40;;;;;;;13.80;52.36;100977.31;5155434;28;20045;-83
2023/05/01 02:42:16;;;;;;;0.38;0.38;;;;;;;13.77;52.27;100967.72;5148722;28;20505;-85
2023/05/01 02:45:09;;;;;;;0.40;0.40;;;;;;;13.80;52.02;100958.88;5140513;28;20503;-85
2023/05/01 02:48:02;;;;;;;0.30;0.30;;;;;;;13.82;52.10;100962.28;5139384;28;20085;-85
2023/05/01 02:50:55;;;;;;;0.30;0.30;;;;;;;13.89;51.88;100965.56;5136413;28;20046;-84
2023/05/01 02:53:46;;;;;;;1.30;0.88;;;;;;;13.82;51.78;100955.25;5157517;28;20121;-85
2023/05/01 02:56:37;;;;;;;0.40;0.40;;;;;;;13.85;52.02;100949.84;5142905;28;20389;-85
2023/05/01 02:59:28;;;;;;;0.50;0.50;;;;;;;13.86;51.74;100934.91;5144302;28;20041;-85
2023/05/01 03:02:19;;;;;;;0.95;0.73;;;;;;;13.82;52.22;100938.56;5141181;28;20042;-84
2023/05/01 03:05:10;;;;;;;4.05;1.55;;;;;;;13.84;52.03;100932.28;5144153;28;20074;-85
2023/05/01 03:08:01;;;;;;;1.75;0.77;;;;;;;13.82;51.87;100934.16;5157947;28;20407;-86
2023/05/01 03:10:51;;;;;;;0.77;0.77;;;;;;;13.87;51.84;100931.34;5165344;28;20045;-86
2023/05/01 03:13:42;;;;;;;0.47;0.47;;;;;;;13.86;51.53;100924.34;5156333;28;20081;-86
2023/05/01 03:16:33;;;;;;;0.38;0.38;;;;;;;13.88;51.58;100919.00;5151847;28;20039;-85
2023/05/01 03:19:24;;;;;;;0.32;0.32;;;;;;;13.85;51.69;100918.19;5152579;28;20131;-85
2023/05/01 03:22:15;;;;;;;0.22;0.22;;;;;;;13.89;51.76;100915.44;5142332;28;20106;-85
2023/05/01 03:25:06;;;;;;;0.47;0.47;;;;;;;13.87;51.80;100914.66;5140170;28;20053;-85
2023/05/01 03:27:57;;;;;;;0.30;0.30;;;;;;;13.88;51.73;100916.38;5146760;28;20042;-85
2023/05/01 03:30:50;;;;;;;1.48;1.35;;;;;;;13.83;51.75;100898.97;5151571;28;20046;-85
2023/05/01 03:33:41;;;;;;;0.45;0.45;;;;;;;13.85;52.03;100902.38;5151152;28;20047;-85
2023/05/01 03:36:32;;;;;;;0.25;0.25;;;;;;;13.83;51.82;100896.31;5154681;28;20094;-85
2023/05/01 03:39:23;;;;;;;0.30;0.30;;;;;;;13.81;52.06;100900.78;5167831;28;20093;-85
2023/05/01 03:42:14;;;;;;;1.30;1.20;;;;;;;13.76;52.25;100902.72;5164985;28;20050;-85
2023/05/01 03:45:05;;;;;;;0.38;0.38;;;;;;;13.77;52.01;100893.88;5155494;28;20124;-86
2023/05/01 03:47:56;;;;;;;0.52;0.52;;;;;;;13.77;51.50;100899.16;5152014;28;20077;-85
2023/05/01 03:50:47;;;;;;;0.50;0.50;;;;;;;13.80;51.82;100890.31;5138111;28;20125;-86
2023/05/01 03:53:38;;;;;;;0.32;0.32;;;;;;;13.71;52.33;100888.84;5141005;28;20031;-86
2023/05/01 03:56:34;;;;;;;0.30;0.30;;;;;;;13.78;51.79;100885.06;5156194;28;20042;-86
2023/05/01 03:59:25;;;;;;;0.28;0.28;;;;;;;13.78;51.79;100885.06;5155476;28;20037;-87
2023/05/01 04:02:15;;;;;;;0.30;0.30;;;;;;;13.82;51.69;100881.41;5137267;28;20057;-85
2023/05/01 04:05:07;;;;;;;0.52;0.52;;;;;;;13.74;52.09;100885.22;5139514;28;20042;-85
2023/05/01 04:07:58;;;;;;;0.40;0.40;;;;;;;13.73;52.12;100883.50;5153029;28;20046;-86
2023/05/01 04:10:48;;;;;;;0.47;0.47;;;;;;;13.75;51.65;100887.84;5154219;28;20503;-86
2023/05/01 04:13:39;;;;;;;0.73;0.73;;;;;;;13.77;51.86;100883.34;5141598;28;20126;-86
2023/05/01 04:16:30;;;;;;;0.30;0.30;;;;;;;13.74;52.08;100878.19;5154683;28;20054;-86
2023/05/01 04:19:21;;;;;;;0.80;0.80;;;;;;;13.66;52.39;100875.84;5139448;28;20150;-85
2023/05/01 04:22:12;;;;;;;2.70;0.75;;;;;;;13.41;53.18;100875.91;5146293;28;20077;-86
2023/05/01 04:25:03;;;;;;;0.45;0.45;;;;;;;13.60;52.34;100880.47;5155347;28;20262;-86
2023/05/01 04:27:54;;;;;;;0.57;0.57;;;;;;;13.65;52.16;100883.81;5131164;28;20468;-86
2023/05/01 04:30:45;;;;;;;1.17;0.93;;;;;;;13.70;52.40;100879.22;5131767;28;20058;-86
2023/05/01 04:33:36;;;;;;;0.30;0.30;;;;;;;13.73;52.44;100876.47;5139358;28;20039;-86
2023/05/01 04:36:28;;;;;;;0.45;0.45;;;;;;;13.70;52.20;100881.84;5140413;28;20133;-87
2023/05/01 04:39:19;;;;;;;0.40;0.40;;;;;;;13.70;52.97;100876.59;5137976;28;20046;-84
2023/05/01 04:42:09;;;;;;;0.40;0.40;;;;;;;13.72;52.28;100880.03;5139849;28;20078;-84
2023/05/01 04:45:02;;;;;;;0.32;0.32;;;;;;;13.64;52.54;100874.19;5144318;28;20045;-85
2023/05/01 04:47:53;;;;;;;1.33;0.67;;;;;;;13.59;52.99;100876.16;5161881;28;20477;-85
2023/05/01 04:50:44;;;;;;;5.82;1.20;;;;;;;13.65;52.71;100870.63;5141704;28;20038;-86
2023/05/01 04:53:35;;;;;;;0.40;0.40;;;;;;;13.71;52.52;100878.31;5144037;28;20053;-85
2023/05/01 04:56:26;;;;;;;0.25;0.25;;;;;;;13.72;52.37;100874.75;5136291;28;22164;-85
2023/05/01 04:59:17;;;;;;;0.30;0.30;;;;;;;13.75;52.26;100882.56;5140036;28;20057;-85
2023/05/01 05:02:08;;;;;;;0.55;0.55;;;;;;;13.57;53.38;100885.88;5135993;28;20042;-86
2023/05/01 05:04:58;;;;;;;0.30;0.30;;;;;;;13.69;53.08;100874.84;5141499;28;20041;-86
2023/05/01 05:07:49;;;;;;;0.47;0.47;;;;;;;13.71;53.01;100877.47;5136361;28;20073;-86
2023/05/01 05:10:40;;;;;;;0.30;0.30;;;;;;;13.73;53.04;100876.47;5135774;28;20491;-85
2023/05/01 05:13:31;;;;;;;0.43;0.43;;;;;;;13.83;52.52;100884.88;5139728;28;20307;-85
2023/05/01 05:16:21;;;;;;;0.60;0.60;;;;;;;13.90;52.33;100875.81;5140649;28;20448;-84
2023/05/01 05:19:12;;;;;;;2.05;1.40;;;;;;;13.91;52.65;100879.34;5151236;28;20038;-85
2023/05/01 05:22:03;;;;;;;0.43;0.43;;;;;;;13.98;52.48;100875.53;5137794;28;20046;-85
2023/05/01 05:24:54;;;;;;;0.40;0.40;;;;;;;13.96;52.86;100877.38;5134983;28;20034;-85
2023/05/01 05:27:45;;;;;;;0.50;0.50;;;;;;;13.98;53.17;100886.09;5153519;28;20034;-85
2023/05/01 05:30:36;;;;;;;0.75;0.75;;;;;;;14.03;52.56;100889.41;5137102;28;20050;-85
2023/05/01 05:33:27;;;;;;;0.22;0.22;;;;;;;14.03;53.04;100889.41;5144678;28;20026;-85
2023/05/01 05:36:18;;;;;;;0.70;0.70;;;;;;;14.11;52.68;100881.19;5148309;28;20165;-86
2023/05/01 05:39:09;;;;;;;1.20;1.10;;;;;;;14.16;52.63;100882.75;5172040;28;20086;-86
2023/05/01 05:42:00;;;;;;;0.20;0.20;;;;;;;14.20;52.85;100890.50;5168699;28;20038;-86
2023/05/01 05:44:51;;;;;;;0.40;0.40;;;;;;;14.22;52.57;100886.88;5154045;28;20034;-88
2023/05/01 05:47:42;;;;;;;0.57;0.57;;;;;;;14.25;52.70;100889.41;5151711;28;20039;-87
2023/05/01 05:50:33;;;;;;;0.20;0.20;;;;;;;14.23;53.01;100879.84;5144819;28;20045;-87
2023/05/01 05:53:24;;;;;;;0.73;0.73;;;;;;;14.26;53.42;100884.97;5147759;28;20066;-88
2023/05/01 05:56:16;;;;;;;1.10;1.00;;;;;;;14.26;53.26;100879.72;5150199;28;20050;-88
2023/05/01 05:59:07;;;;;;;0.75;0.75;;;;;;;14.34;52.78;100888.19;5143249;28;20074;-87
2023/05/01 06:01:58;;;;;;;0.65;0.65;;;;;;;14.29;53.42;100884.88;5149627;28;20136;-85
2023/05/01 06:04:48;;;;;;;1.13;1.00;;;;;;;14.39;53.23;100885.34;5144401;28;20038;-85
2023/05/01 06:07:39;;;;;;;0.75;0.75;;;;;;;14.45;52.83;100885.13;5154876;28;20488;-85
2023/05/01 06:10:30;;;;;;;0.88;0.88;;;;;;;14.36;53.28;100886.34;5158044;28;20074;-84
2023/05/01 06:13:21;;;;;;;0.63;0.57;;;;;;;14.46;52.95;100887.69;5141044;28;20030;-86
2023/05/01 06:16:12;;;;;;;0.30;0.30;;;;;;;14.48;52.89;100885.88;5155644;28;20161;-84
2023/05/01 06:19:03;;;;;;;0.43;0.43;;;;;;;14.54;52.93;100889.16;5144057;28;20105;-85
2023/05/01 06:21:53;;;;;;;0.55;0.55;;;;;;;14.57;52.77;100881.13;5144483;28;20047;-88
2023/05/01 06:24:45;;;;;;;0.35;0.35;;;;;;;14.57;52.98;100876.69;5154943;28;20045;-84
2023/05/01 06:27:35;;;;;;;0.40;0.40;;;;;;;14.60;52.99;100876.56;5157679;28;20351;-86
2023/05/01 06:30:26;;;;;;;0.77;0.77;;;;;;;14.63;53.10;100883.50;5144203;28;20030;-83
2023/05/01 06:33:17;;;;;;;0.50;0.50;;;;;;;14.64;53.09;100875.50;5154378;28;20135;-84
2023/05/01 06:36:08;;;;;;;0.35;0.35;;;;;;;14.69;53.21;100879.78;5153341;28;20057;-85
2023/05/01 06:38:59;;;;;;;4.13;0.82;;;;;;;14.74;52.91;100876.03;5156955;28;20239;-84
2023/05/01 06:41:50;;;;;;;0.43;0.43;;;;;;;14.79;53.20;100874.03;5147146;28;20400;-84
2023/05/01 06:44:41;;;;;;;0.75;0.60;;;;;;;14.81;53.14;100875.75;5146953;28;20146;-84
2023/05/01 06:47:32;;;;;;;0.43;0.43;;;;;;;14.73;53.70;100876.06;5156847;28;20038;-84
2023/05/01 06:50:23;;;;;;;0.65;0.57;;;;;;;14.81;53.25;100866.03;5159085;28;20036;-84
2023/05/01 06:53:14;;;;;;;1.27;0.80;;;;;;;14.89;53.14;100863.94;5148286;28;20038;-87
2023/05/01 06:56:05;;;;;;;0.50;0.50;;;;;;;14.93;53.05;100869.94;5151303;28;20041;-86
2023/05/01 06:58:56;;;;;;;0.60;0.60;;;;;;;14.97;52.90;100866.25;5154058;28;20065;-85
2023/05/01 07:01:47;;;;;;;0.85;0.85;;;;;;;14.95;53.31;100865.47;5148022;28;20505;-86
2023/05/01 07:04:38;;;;;;;0.75;0.75;;;;;;;14.78;54.99;100868.84;5152709;28;20440;-86
2023/05/01 07:07:29;;;;;;;1.35;1.00;;;;;;;14.97;53.68;100866.25;5157336;28;20041;-86
2023/05/01 07:10:21;;;;;;;0.63;0.63;;;;;;;15.04;53.45;100864.22;5168076;28;20469;-88
2023/05/01 07:13:12;;;;;;;0.32;0.32;;;;;;;15.10;53.48;100864.78;5167486;28;20126;-87
2023/05/01 07:16:04;;;;;;;0.30;0.30;;;;;;;15.08;53.34;100866.63;5165427;28;20134;-86
2023/05/01 07:18:56;;;;;;;0.30;0.30;;;;;;;15.14;53.50;100859.38;5154104;28;20062;-86
2023/05/01 07:21:46;;;;;;;0.40;0.40;;;;;;;15.13;53.60;100857.66;5159250;28;20070;-88
2023/05/01 07:24:37;;;;;;;0.40;0.40;;;;;;;15.09;53.99;100860.44;5157638;28;20018;-85
2023/05/01 07:27:28;;;;;;;1.52;1.42;;;;;;;15.20;53.78;100859.97;5161770;28;20054;-87
2023/05/01 07:30:19;;;;;;;0.20;0.20;;;;;;;15.22;53.88;100863.38;5166496;28;20085;-86
2023/05/01 07:33:10;;;;;;;0.30;0.30;;;;;;;15.32;53.70;100863.88;5159679;28;20264;-87
2023/05/01 07:36:03;;;;;;;0.30;0.30;;;;;;;15.37;53.77;100864.50;5160079;28;20090;-87
2023/05/01 07:38:55;;;;;;;2.22;1.23;;;;;;;15.30;53.82;100860.41;5180812;28;20037;-87
2023/05/01 07:41:46;;;;;;;1.52;1.42;;;;;;;15.47;53.28;100856.16;5168611;28;20074;-87
2023/05/01 07:44:37;;;;;;;0.28;0.28;;;;;;;15.51;53.47;100860.38;5164171;28;20034;-87
2023/05/01 07:47:28;;;;;;;16.05;0.82;;;;;;;15.24;53.69;100858.06;5163259;28;20432;-84
2023/05/01 07:50:20;;;;;;;0.40;0.40;;;;;;;15.40;53.92;100853.81;5160854;28;20125;-86
2023/05/01 07:53:11;;;;;;;0.45;0.45;;;;;;;15.62;53.60;100847.53;5171746;28;20042;-85
2023/05/01 07:56:07;;;;;;;1.10;0.93;;;;;;;15.68;53.75;100851.66;5160767;28;20038;-86
2023/05/01 07:58:58;;;;;;;0.45;0.45;;;;;;;15.74;53.55;100857.50;5155574;28;20038;-86
2023/05/01 08:01:48;;;;;;;0.45;0.45;;;;;;;15.71;52.73;100857.69;5152662;28;20137;-85
2023/05/01 08:04:40;;;;;;;0.52;0.52;;;;;;;15.77;53.33;100851.25;5153936;28;20058;-85
2023/05/01 08:07:31;;;;;;;0.50;0.50;;;;;;;15.81;52.70;100851.97;5134278;28;20061;-86
2023/05/01 08:10:26;;;;;;;0.22;0.22;;;;;;;15.94;52.93;100853.13;5148730;28;20030;-87
2023/05/01 08:13:17;;;;;;;0.32;0.32;;;;;;;16.03;52.91;100860.63;5168020;28;20081;-86
2023/05/01 08:16:08;;;;;;;0.30;0.30;;;;;;;16.14;52.29;100860.09;5145826;28;20108;-86
2023/05/01 08:18:59;;;;;;;0.50;0.50;;;;;;;16.10;52.43;100858.53;5145254;28;20046;-85
2023/05/01 08:21:50;;;;;;;0.57;0.57;;;;;;;16.14;52.82;100865.38;5199198;22;20074;-84
2023/05/01 08:24:43;;;;;;;1.40;1.30;;;;;;;16.21;52.46;100863.31;5200631;28;20063;-86
2023/05/01 08:27:34;;;;;;;1.15;1.05;;;;;;;16.25;52.96;100867.50;5200127;28;20051;-85
2023/05/01 08:30:25;;;;;;;0.57;0.57;;;;;;;16.40;52.64;100868.56;5195789;28;20099;-84
2023/05/01 08:33:16;;;;;;;0.55;0.55;;;;;;;16.33;52.54;100859.22;5209916;28;20029;-85
2023/05/01 08:36:09;;;;;;;12.60;0.75;;;;;;;16.11;51.80;100854.97;5219437;22;20047;-80
2023/05/01 08:39:00;;;;;;;;;;;;;;;16.25;52.67;100862.22;5217536;28;20084;-82
2023/05/01 08:41:52;;;;;;;1.40;1.30;;;;;;;16.33;52.83;100862.69;5207009;28;19925;-82
2023/05/01 08:44:50;;;;;;;0.40;0.40;;;;;;;16.24;51.26;100857.00;5193873;28;20059;-82
2023/05/01 08:47:42;;;;;;;2.55;1.45;;;;;;;16.13;50.47;100857.53;5158039;28;20499;-83
2023/05/01 08:50:44;;;;;;;0.85;0.63;;;;;;;16.16;51.60;100854.72;5187047;28;20088;-81
2023/05/01 08:53:37;;;;;;;2.08;1.13;;;;;;;16.24;51.30;100857.00;5181231;28;20042;-83
2023/05/01 08:56:30;;;;;;;7.68;1.27;;;;;;;16.23;51.28;100853.50;5189006;28;20455;-82
2023/05/01 08:59:32;;;;;;;0.40;0.40;;;;;;;16.39;51.53;100858.06;5192524;28;20762;-82
2023/05/01 09:02:24;;;;;;;0.75;0.55;;;;;;;16.44;51.72;100848.09;5176966;28;20029;-82
2023/05/01 09:05:17;;;;;;;1.50;0.90;;;;;;;16.49;51.60;100843.41;5182236;28;20046;-83
2023/05/01 09:08:08;;;;;;;0.60;0.60;;;;;;;16.51;51.54;100841.53;5187686;28;20119;-83
2023/05/01 09:11:03;;;;;;;0.60;0.60;;;;;;;16.46;53.05;100848.88;5180037;28;20099;-85
2023/05/01 09:13:56;;;;;;;0.50;0.50;;;;;;;16.63;52.63;100851.53;5169444;28;20117;-85
2023/05/01 09:16:49;;;;;;;1.73;1.63;;;;;;;16.63;51.85;100840.94;5176958;28;20077;-85
2023/05/01 09:19:41;;;;;;;0.40;0.40;;;;;;;16.56;50.16;100842.19;5176016;28;20439;-86
2023/05/01 09:22:32;;;;;;;0.20;0.20;;;;;;;16.57;50.69;100846.53;5195468;28;20804;-84
2023/05/01 09:25:25;;;;;;;0.82;0.70;;;;;;;16.67;50.71;100846.94;5199315;28;20480;-84
2023/05/01 09:28:40;;;;;;;0.40;0.40;;;;;;;16.67;50.59;100846.94;5200091;28;20603;-85
2023/05/01 09:31:34;;;;;;;0.30;0.30;;;;;;;16.72;50.43;100847.56;5182810;28;20083;-83
2023/05/01 09:34:27;;;;;;;0.98;0.95;;;;;;;16.82;51.46;100850.56;5185366;28;20038;-83
2023/05/01 09:37:35;;;;;;;0.60;0.60;;;;;;;16.92;50.41;100843.88;5158038;28;20353;-83
2023/05/01 09:40:27;;;;;;;0.88;0.52;;;;;;;16.97;50.96;100843.66;5200265;28;20045;-83
2023/05/01 09:43:28;;;;;;;0.40;0.40;;;;;;;17.02;50.60;100840.78;5178004;28;20049;-83
2023/05/01 09:46:29;;;;;;;0.22;0.22;;;;;;;17.13;50.84;100843.72;5191188;28;20121;-83
2023/05/01 09:49:47;;;;;;;9.73;1.10;;;;;;;17.15;49.40;100842.72;5172585;28;20109;-83
2023/05/01 09:52:57;;;;;;;0.47;0.47;;;;;;;17.14;50.07;100842.81;5180837;28;20038;-84
2023/05/01 09:56:02;;;;;;;0.40;0.40;;;;;;;17.26;49.33;100851.91;5183402;28;20488;-83
2023/05/01 09:58:57;;;;;;;0.68;0.68;;;;;;;17.28;48.91;100840.25;5188285;28;20606;-84
2023/05/01 10:01:57;;;;;;;3.40;0.52;;;;;;;17.40;48.86;100837.88;5186538;28;21362;-83
2023/05/01 10:05:04;;;;;;;0.40;0.40;;;;;;;17.34;47.87;100835.56;5180777;28;20072;-83
2023/05/01 10:08:02;;;;;;;0.30;0.30;;;;;;;17.48;49.82;100838.31;5145698;28;20052;-84
2023/05/01 10:11:07;;;;;;;0.40;0.40;;;;;;;17.59;49.68;100835.09;5185525;28;20034;-85
2023/05/01 10:14:08;;;;;;;1.27;0.57;;;;;;;17.73;48.88;100834.31;5189084;28;20121;-84
2023/05/01 10:16:59;;;;;;;0.30;0.30;;;;;;;17.77;48.14;100833.22;5207482;28;20126;-83
2023/05/01 10:19:54;;;;;;;0.40;0.40;;;;;;;17.89;48.90;100832.53;5198967;28;20030;-83
2023/05/01 10:22:45;;;;;;;0.47;0.40;;;;;;;17.84;48.61;100829.28;5198365;28;20064;-84
2023/05/01 10:25:44;;;;;;;0.40;0.40;;;;;;;17.86;49.24;100832.72;5194950;28;20830;-84
2023/05/01 10:28:37;;;;;;;1.25;1.20;;;;;;;17.92;48.12;100829.72;5186761;28;20061;-85
2023/05/01 10:31:34;;;;;;;0.47;0.47;;;;;;;18.06;47.96;100828.97;5193511;28;20060;-85
2023/05/01 10:34:26;;;;;;;0.35;0.35;;;;;;;18.13;47.55;100832.13;5189853;28;20040;-84
2023/05/01 10:37:34;;;;;;;0.65;0.52;;;;;;;18.10;46.78;100826.97;5182191;28;20041;-85
2023/05/01 10:40:52;;;;;;;1.58;0.60;;;;;;;18.22;47.24;100823.59;5193110;28;20129;-86
2023/05/01 10:43:44;;;;;;;4.50;0.30;;;;;;;18.20;46.08;100825.53;5190740;28;20053;-85
2023/05/01 10:46:58;;;;;;;0.77;0.43;;;;;;;18.40;46.89;100836.78;5157218;28;20049;-85
2023/05/01 10:50:10;;;;;;;0.30;0.30;;;;;;;18.50;46.74;100822.00;5200803;28;20243;-84
2023/05/01 10:53:15;;;;;;;0.90;0.85;;;;;;;18.56;46.40;100818.16;5202821;28;20051;-86
2023/05/01 10:56:24;;;;;;;0.77;0.77;;;;;;;18.48;45.20;100817.75;5203907;28;20051;-88
2023/05/01 10:59:15;;;;;;;0.40;0.40;;;;;;;18.62;45.03;100817.78;5198549;28;20045;-84
2023/05/01 11:02:20;;;;;;;0.45;0.45;;;;;;;18.76;46.19;100816.94;5189459;28;20052;-83
2023/05/01 11:05:11;;;;;;;0.68;0.68;;;;;;;18.82;46.73;100805.94;5223670;28;20030;-84
2023/05/01 11:08:48;;;;;;;;;;;;;;;;;;;;;
2023/05/01 11:12:50;;;;;;;0.80;0.80;;;;;;;19.00;45.55;100809.34;5134771;28;20075;-84
2023/05/01 11:15:55;;;;;;;0.35;0.35;;;;;;;19.10;46.02;100814.94;5193973;28;20064;-84
2023/05/01 11:19:35;;;;;;;0.70;0.70;;;;;;;19.15;45.06;100801.34;5196233;28;20046;-85
2023/05/01 11:22:30;;;;;;;0.30;0.30;;;;;;;19.28;44.84;100809.44;5157408;28;20044;-84
2023/05/01 11:25:42;;;;;;;0.50;0.50;;;;;;;19.37;45.72;100805.31;5204806;28;20063;-84
2023/05/01 11:28:37;;;;;;;2.83;1.35;;;;;;;19.44;45.81;100810.19;5195561;28;20036;-83
2023/05/01 11:31:31;;;;;;;0.30;0.30;;;;;;;19.60;45.27;100801.22;5175295;28;20115;-84
2023/05/01 11:34:34;;;;;;;0.25;0.25;;;;;;;19.69;43.79;100797.97;5183754;28;20041;-86
2023/05/01 11:37:41;;;;;;;0.20;0.20;;;;;;;19.72;44.03;100803.06;5150045;28;20117;-83
2023/05/01 11:40:33;;;;;;;0.40;0.40;;;;;;;19.60;43.96;100801.22;5190048;28;20881;-83
2023/05/01 11:43:25;;;;;;;1.30;0.50;;;;;;;19.66;44.10;100807.00;5183825;28;20050;-82
2023/05/01 11:46:26;;;;;;;0.50;0.50;;;;;;;19.84;43.35;100800.59;5196645;28;20506;-82
2023/05/01 11:49:25;;;;;;;0.30;0.30;;;;;;;19.91;41.96;100788.59;5199219;28;20034;-83
2023/05/01 11:52:16;;;;;;;1.17;1.08;;;;;;;19.89;42.19;100785.19;5195420;28;20239;-82
2023/05/01 11:55:39;;;;;;;2.53;0.65;;;;;;;19.89;42.54;100780.72;5200486;28;20096;-82
2023/05/01 11:58:32;;;;;;;0.43;0.43;;;;;;;20.06;43.92;100787.59;5190855;28;20050;-82
2023/05/01 12:01:37;;;;;;;0.47;0.47;;;;;;;20.09;41.16;100784.75;5188145;28;20053;-84
2023/05/01 12:04:27;;;;;;;0.60;0.60;;;;;;;20.19;41.70;100776.16;5188775;28;20044;-81
2023/05/01 12:07:20;;;;;;;0.20;0.20;;;;;;;20.32;42.19;100777.00;5204673;28;20045;-81
2023/05/01 12:10:29;;;;;;;0.50;0.45;;;;;;;20.29;42.31;100772.75;5175777;28;20225;-84
2023/05/01 12:13:20;;;;;;;0.40;0.40;;;;;;;20.78;41.41;100774.88;5181627;28;20042;-82
2023/05/01 12:16:11;;;;;;;0.47;0.47;;;;;;;20.64;38.58;100776.63;5187756;28;20037;-82
2023/05/01 12:19:03;;;;;;;0.40;0.40;;;;;;;20.78;40.28;100770.38;5186823;28;20085;-83
2023/05/01 12:22:14;;;;;;;0.32;0.32;;;;;;;20.82;39.58;100771.03;5176519;28;20037;-81
2023/05/01 12:25:06;;;;;;;0.50;0.50;;;;;;;20.61;38.85;100763.53;5192758;28;20033;-83
2023/05/01 12:27:57;;;;;;;1.02;0.77;;;;;;;20.77;38.47;100759.84;5187071;28;20120;-83
2023/05/01 12:31:27;;;;;;;0.77;0.77;;;;;;;20.76;38.94;100764.28;5152644;28;20059;-83
2023/05/01 12:34:56;;;;;;;0.30;0.30;;;;;;;20.49;38.71;100767.03;5174920;28;20117;-83
2023/05/01 12:37:58;;;;;;;0.20;0.20;;;;;;;20.48;38.75;100762.66;5132769;28;20050;-83
2023/05/01 12:41:18;;;;;;;0.50;0.50;;;;;;;20.66;39.46;100768.53;5169804;28;20037;-84
2023/05/01 12:44:21;;;;;;;0.30;0.30;;;;;;;20.45;39.50;100767.22;5168459;28;20131;-84
2023/05/01 12:47:12;;;;;;;0.30;0.30;;;;;;;20.54;41.32;100760.44;5181931;28;20057;-83
2023/05/01 12:50:04;;;;;;;0.52;0.52;;;;;;;20.55;41.67;100758.59;5181344;28;20040;-85
2023/05/01 12:52:55;;;;;;;0.55;0.43;;;;;;;20.60;42.21;100760.00;5180578;28;20122;-82
2023/05/01 12:55:47;;;;;;;1.05;0.93;;;;;;;20.20;41.83;100761.88;5195211;28;20030;-83
2023/05/01 12:58:38;;;;;;;0.52;0.52;;;;;;;20.40;41.81;100758.69;5179689;28;20095;-85
2023/05/01 13:01:29;;;;;;;0.50;0.32;;;;;;;20.17;41.12;100762.06;5177749;28;20347;-83
2023/05/01 13:04:21;;;;;;;2.20;0.63;;;;;;;20.44;41.76;100754.88;5177899;28;20030;-86
2023/05/01 13:07:15;;;;;;;0.43;0.43;;;;;;;20.53;41.40;100765.88;5189807;28;20057;-83
2023/05/01 13:10:06;;;;;;;0.55;0.55;;;;;;;20.53;41.08;100764.03;5190289;28;20029;-84
2023/05/01 13:13:33;;;;;;;0.50;0.50;;;;;;;20.60;40.55;100767.16;5192355;28;20409;-83
2023/05/01 13:16:30;;;;;;;0.55;0.55;;;;;;;20.53;40.57;100763.22;5193723;28;20119;-84
2023/05/01 13:19:30;;;;;;;0.32;0.32;;;;;;;20.53;40.22;100776.53;5188108;28;20414;-83
2023/05/01 13:22:35;;;;;;;0.50;0.50;;;;;;;20.39;39.21;100777.47;5163207;28;20071;-84
2023/05/01 13:25:26;;;;;;;0.55;0.35;;;;;;;20.26;38.26;100772.94;5180632;28;20040;-83
2023/05/01 13:28:18;;;;;;;0.40;0.40;;;;;;;20.45;37.98;100767.22;5190910;28;20172;-82
2023/05/01 13:31:13;;;;;;;0.30;0.30;;;;;;;20.41;39.12;100770.22;5163520;28;20922;-85
2023/05/01 13:34:04;;;;;;;0.40;0.40;;;;;;;20.47;39.65;100761.81;5168650;28;20037;-83
2023/05/01 13:37:52;;;;;;;0.20;0.20;;;;;;;20.36;39.35;100762.53;5174017;28;20107;-81